Druid Hills, Georgia
Current Conditions -  °F | °C
As of 9:28 AM on Saturday 20 Dec 2014 (Local Time) from KPDK Reporting Station
Haze Haze  
Wind Chill: 45°   Ceiling: 2900
Heat Index: 45°   Visibility: 4mi
Dew Point: 43°   Wind: 0mph
Humidity: 93%   Direction: NA
Pressure: 30.2"   Gusts: NA
Location:  33.7788°N, 84.3361°W
Report Text: KPDK 201428Z 00000KT 4SM BR OVC029 07/06 A3020 RMK AO2 $
Loading
Personal Weather Stations






























Interactive Weather Map New forecast layout! Learn more

10-Day Weather Forecast

Advertisements
Track Severe Weather on mobile